sensor_id;sensor_type;location;lat;lon;timestamp;P1;durP1;ratioP1;P2;durP2;ratioP2
74465;SDS011;62916;50.044;15.938;2022-10-26T00:02:12;2.00;;;1.20;;
74465;SDS011;62916;50.044;15.938;2022-10-26T00:04:43;1.80;;;1.30;;
74465;SDS011;62916;50.044;15.938;2022-10-26T00:07:14;1.70;;;1.40;;
74465;SDS011;62916;50.044;15.938;2022-10-26T00:09:45;3.50;;;1.20;;
74465;SDS011;62916;50.044;15.938;2022-10-26T00:12:15;1.10;;;1.00;;
74465;SDS011;62916;50.044;15.938;2022-10-26T00:14:46;1.40;;;1.30;;
74465;SDS011;62916;50.044;15.938;2022-10-26T00:17:17;1.70;;;1.40;;
74465;SDS011;62916;50.044;15.938;2022-10-26T00:19:47;2.70;;;1.40;;
74465;SDS011;62916;50.044;15.938;2022-10-26T00:22:18;2.90;;;1.50;;
74465;SDS011;62916;50.044;15.938;2022-10-26T00:24:48;1.60;;;1.20;;
74465;SDS011;62916;50.044;15.938;2022-10-26T00:27:19;1.90;;;1.20;;
74465;SDS011;62916;50.044;15.938;2022-10-26T00:29:50;1.60;;;1.50;;
74465;SDS011;62916;50.044;15.938;2022-10-26T00:32:21;1.80;;;1.30;;
74465;SDS011;62916;50.044;15.938;2022-10-26T00:34:51;1.90;;;1.20;;
74465;SDS011;62916;50.044;15.938;2022-10-26T00:37:22;1.80;;;1.10;;
74465;SDS011;62916;50.044;15.938;2022-10-26T00:39:53;1.70;;;1.30;;
74465;SDS011;62916;50.044;15.938;2022-10-26T00:42:23;2.20;;;1.60;;
74465;SDS011;62916;50.044;15.938;2022-10-26T00:44:58;1.60;;;1.50;;
74465;SDS011;62916;50.044;15.938;2022-10-26T00:47:35;1.60;;;1.20;;
74465;SDS011;62916;50.044;15.938;2022-10-26T00:50:09;1.80;;;1.40;;
74465;SDS011;62916;50.044;15.938;2022-10-26T00:52:45;2.20;;;2.00;;
74465;SDS011;62916;50.044;15.938;2022-10-26T00:55:18;2.00;;;1.80;;
74465;SDS011;62916;50.044;15.938;2022-10-26T00:57:52;2.40;;;1.20;;
74465;SDS011;62916;50.044;15.938;2022-10-26T01:00:23;1.60;;;1.30;;
74465;SDS011;62916;50.044;15.938;2022-10-26T01:02:54;1.50;;;1.00;;
74465;SDS011;62916;50.044;15.938;2022-10-26T01:05:29;1.60;;;1.20;;
74465;SDS011;62916;50.044;15.938;2022-10-26T01:08:00;1.50;;;1.40;;
74465;SDS011;62916;50.044;15.938;2022-10-26T01:10:32;1.30;;;1.20;;
74465;SDS011;62916;50.044;15.938;2022-10-26T01:13:06;1.50;;;1.20;;
74465;SDS011;62916;50.044;15.938;2022-10-26T01:15:40;2.20;;;1.40;;
74465;SDS011;62916;50.044;15.938;2022-10-26T01:18:18;1.50;;;1.10;;
74465;SDS011;62916;50.044;15.938;2022-10-26T01:24:06;1.40;;;1.30;;
74465;SDS011;62916;50.044;15.938;2022-10-26T01:29:56;1.70;;;1.30;;
74465;SDS011;62916;50.044;15.938;2022-10-26T01:32:42;2.00;;;1.00;;
74465;SDS011;62916;50.044;15.938;2022-10-26T01:35:20;1.40;;;1.10;;
74465;SDS011;62916;50.044;15.938;2022-10-26T01:37:57;1.50;;;1.40;;
74465;SDS011;62916;50.044;15.938;2022-10-26T01:40:33;1.70;;;1.20;;
74465;SDS011;62916;50.044;15.938;2022-10-26T01:43:08;1.50;;;1.10;;
74465;SDS011;62916;50.044;15.938;2022-10-26T01:45:44;1.70;;;1.20;;
74465;SDS011;62916;50.044;15.938;2022-10-26T01:48:16;1.40;;;1.30;;
74465;SDS011;62916;50.044;15.938;2022-10-26T01:50:51;1.80;;;1.40;;
74465;SDS011;62916;50.044;15.938;2022-10-26T01:53:22;1.70;;;1.30;;
74465;SDS011;62916;50.044;15.938;2022-10-26T01:55:57;1.90;;;1.10;;
74465;SDS011;62916;50.044;15.938;2022-10-26T01:58:34;2.60;;;1.10;;
74465;SDS011;62916;50.044;15.938;2022-10-26T02:01:23;1.70;;;1.60;;
74465;SDS011;62916;50.044;15.938;2022-10-26T02:04:13;1.90;;;1.30;;
74465;SDS011;62916;50.044;15.938;2022-10-26T02:06:54;1.30;;;1.10;;
74465;SDS011;62916;50.044;15.938;2022-10-26T02:09:33;1.50;;;1.40;;
74465;SDS011;62916;50.044;15.938;2022-10-26T02:12:12;1.50;;;1.40;;
74465;SDS011;62916;50.044;15.938;2022-10-26T02:14:49;1.30;;;1.20;;
74465;SDS011;62916;50.044;15.938;2022-10-26T02:17:26;1.70;;;1.20;;
74465;SDS011;62916;50.044;15.938;2022-10-26T02:20:03;1.50;;;1.10;;
74465;SDS011;62916;50.044;15.938;2022-10-26T02:22:38;1.50;;;1.00;;
74465;SDS011;62916;50.044;15.938;2022-10-26T02:25:12;1.50;;;1.30;;
74465;SDS011;62916;50.044;15.938;2022-10-26T02:27:48;1.60;;;1.10;;
74465;SDS011;62916;50.044;15.938;2022-10-26T02:30:23;1.80;;;1.30;;
74465;SDS011;62916;50.044;15.938;2022-10-26T02:32:55;1.60;;;1.40;;
74465;SDS011;62916;50.044;15.938;2022-10-26T02:35:32;1.30;;;1.10;;
74465;SDS011;62916;50.044;15.938;2022-10-26T02:38:06;1.40;;;1.30;;
74465;SDS011;62916;50.044;15.938;2022-10-26T02:43:10;2.20;;;1.00;;
74465;SDS011;62916;50.044;15.938;2022-10-26T02:45:50;1.80;;;1.20;;
74465;SDS011;62916;50.044;15.938;2022-10-26T02:48:24;1.70;;;1.30;;
74465;SDS011;62916;50.044;15.938;2022-10-26T02:50:57;2.20;;;1.20;;
74465;SDS011;62916;50.044;15.938;2022-10-26T02:53:33;1.70;;;1.20;;
74465;SDS011;62916;50.044;15.938;2022-10-26T02:56:11;1.50;;;1.10;;
74465;SDS011;62916;50.044;15.938;2022-10-26T02:58:46;1.80;;;1.20;;
74465;SDS011;62916;50.044;15.938;2022-10-26T03:01:21;1.40;;;1.30;;
74465;SDS011;62916;50.044;15.938;2022-10-26T03:03:55;1.90;;;1.30;;
74465;SDS011;62916;50.044;15.938;2022-10-26T03:08:55;1.90;;;1.20;;
74465;SDS011;62916;50.044;15.938;2022-10-26T03:11:26;2.10;;;1.20;;
74465;SDS011;62916;50.044;15.938;2022-10-26T03:13:57;1.40;;;1.20;;
74465;SDS011;62916;50.044;15.938;2022-10-26T03:16:28;1.80;;;1.50;;
74465;SDS011;62916;50.044;15.938;2022-10-26T03:18:59;1.30;;;1.20;;
74465;SDS011;62916;50.044;15.938;2022-10-26T03:21:29;1.90;;;1.50;;
74465;SDS011;62916;50.044;15.938;2022-10-26T03:24:00;1.40;;;1.10;;
74465;SDS011;62916;50.044;15.938;2022-10-26T03:26:31;4.10;;;1.20;;
74465;SDS011;62916;50.044;15.938;2022-10-26T03:29:02;2.20;;;1.00;;
74465;SDS011;62916;50.044;15.938;2022-10-26T03:31:33;1.60;;;1.20;;
74465;SDS011;62916;50.044;15.938;2022-10-26T03:34:03;2.00;;;1.20;;
74465;SDS011;62916;50.044;15.938;2022-10-26T03:36:34;2.50;;;1.20;;
74465;SDS011;62916;50.044;15.938;2022-10-26T03:39:05;1.50;;;1.40;;
74465;SDS011;62916;50.044;15.938;2022-10-26T03:41:35;1.60;;;1.30;;
74465;SDS011;62916;50.044;15.938;2022-10-26T03:44:06;1.20;;;1.10;;
74465;SDS011;62916;50.044;15.938;2022-10-26T03:46:37;3.30;;;1.40;;
74465;SDS011;62916;50.044;15.938;2022-10-26T03:49:08;2.40;;;1.40;;
74465;SDS011;62916;50.044;15.938;2022-10-26T03:51:38;2.00;;;1.40;;
74465;SDS011;62916;50.044;15.938;2022-10-26T03:54:09;4.00;;;1.40;;
74465;SDS011;62916;50.044;15.938;2022-10-26T03:56:40;2.00;;;1.30;;
74465;SDS011;62916;50.044;15.938;2022-10-26T03:59:11;1.80;;;1.40;;
74465;SDS011;62916;50.044;15.938;2022-10-26T04:01:42;2.20;;;1.60;;
74465;SDS011;62916;50.044;15.938;2022-10-26T04:04:14;6.80;;;1.70;;
74465;SDS011;62916;50.044;15.938;2022-10-26T04:06:45;7.10;;;1.10;;
74465;SDS011;62916;50.044;15.938;2022-10-26T04:09:15;4.20;;;1.90;;
74465;SDS011;62916;50.044;15.938;2022-10-26T04:11:46;5.60;;;1.60;;
74465;SDS011;62916;50.044;15.938;2022-10-26T04:14:17;6.60;;;1.50;;
74465;SDS011;62916;50.044;15.938;2022-10-26T04:16:48;5.60;;;1.50;;
74465;SDS011;62916;50.044;15.938;2022-10-26T04:19:19;4.90;;;1.20;;
74465;SDS011;62916;50.044;15.938;2022-10-26T04:21:51;2.20;;;1.10;;
74465;SDS011;62916;50.044;15.938;2022-10-26T04:24:21;2.50;;;1.20;;
74465;SDS011;62916;50.044;15.938;2022-10-26T04:26:52;2.40;;;1.30;;
74465;SDS011;62916;50.044;15.938;2022-10-26T04:29:23;3.40;;;1.60;;
74465;SDS011;62916;50.044;15.938;2022-10-26T04:31:54;6.10;;;1.50;;
74465;SDS011;62916;50.044;15.938;2022-10-26T04:34:24;6.80;;;2.10;;
74465;SDS011;62916;50.044;15.938;2022-10-26T04:36:55;8.30;;;1.60;;
74465;SDS011;62916;50.044;15.938;2022-10-26T04:39:26;9.50;;;2.10;;
74465;SDS011;62916;50.044;15.938;2022-10-26T04:41:57;11.00;;;1.90;;
74465;SDS011;62916;50.044;15.938;2022-10-26T04:44:28;6.20;;;1.90;;
74465;SDS011;62916;50.044;15.938;2022-10-26T04:46:58;3.60;;;1.50;;
74465;SDS011;62916;50.044;15.938;2022-10-26T04:49:29;5.10;;;1.90;;
74465;SDS011;62916;50.044;15.938;2022-10-26T04:52:00;4.20;;;1.40;;
74465;SDS011;62916;50.044;15.938;2022-10-26T04:54:30;4.40;;;1.50;;
74465;SDS011;62916;50.044;15.938;2022-10-26T04:57:01;4.40;;;1.40;;
74465;SDS011;62916;50.044;15.938;2022-10-26T04:59:31;2.90;;;1.20;;
74465;SDS011;62916;50.044;15.938;2022-10-26T05:02:02;7.00;;;1.50;;
74465;SDS011;62916;50.044;15.938;2022-10-26T05:04:33;5.70;;;1.50;;
74465;SDS011;62916;50.044;15.938;2022-10-26T05:07:04;5.80;;;1.70;;
74465;SDS011;62916;50.044;15.938;2022-10-26T05:09:34;2.50;;;1.50;;
74465;SDS011;62916;50.044;15.938;2022-10-26T05:12:05;5.90;;;1.60;;
74465;SDS011;62916;50.044;15.938;2022-10-26T05:14:36;3.00;;;1.10;;
74465;SDS011;62916;50.044;15.938;2022-10-26T05:17:07;3.50;;;1.50;;
74465;SDS011;62916;50.044;15.938;2022-10-26T05:19:37;5.70;;;1.60;;
74465;SDS011;62916;50.044;15.938;2022-10-26T05:22:08;2.80;;;1.30;;
74465;SDS011;62916;50.044;15.938;2022-10-26T05:24:39;3.50;;;1.30;;
74465;SDS011;62916;50.044;15.938;2022-10-26T05:27:10;3.10;;;1.40;;
74465;SDS011;62916;50.044;15.938;2022-10-26T05:29:41;3.90;;;1.40;;
74465;SDS011;62916;50.044;15.938;2022-10-26T05:32:14;4.10;;;1.30;;
74465;SDS011;62916;50.044;15.938;2022-10-26T05:34:44;2.50;;;1.20;;
74465;SDS011;62916;50.044;15.938;2022-10-26T05:37:15;3.00;;;1.00;;
74465;SDS011;62916;50.044;15.938;2022-10-26T05:39:46;1.90;;;1.40;;
74465;SDS011;62916;50.044;15.938;2022-10-26T05:42:17;2.40;;;1.20;;
74465;SDS011;62916;50.044;15.938;2022-10-26T05:44:48;1.60;;;1.10;;
74465;SDS011;62916;50.044;15.938;2022-10-26T05:47:19;2.50;;;1.30;;
74465;SDS011;62916;50.044;15.938;2022-10-26T05:49:50;2.70;;;1.30;;
74465;SDS011;62916;50.044;15.938;2022-10-26T05:52:21;2.70;;;1.40;;
74465;SDS011;62916;50.044;15.938;2022-10-26T05:54:51;3.30;;;1.30;;
74465;SDS011;62916;50.044;15.938;2022-10-26T05:57:23;4.00;;;1.30;;
74465;SDS011;62916;50.044;15.938;2022-10-26T05:59:56;2.30;;;1.40;;
74465;SDS011;62916;50.044;15.938;2022-10-26T06:02:29;4.30;;;1.00;;
74465;SDS011;62916;50.044;15.938;2022-10-26T06:05:09;2.10;;;1.10;;
74465;SDS011;62916;50.044;15.938;2022-10-26T06:07:49;2.00;;;1.20;;
74465;SDS011;62916;50.044;15.938;2022-10-26T06:10:21;2.30;;;1.00;;
74465;SDS011;62916;50.044;15.938;2022-10-26T06:12:53;2.40;;;1.20;;
74465;SDS011;62916;50.044;15.938;2022-10-26T06:15:24;1.30;;;1.20;;
74465;SDS011;62916;50.044;15.938;2022-10-26T06:17:59;2.90;;;1.20;;
74465;SDS011;62916;50.044;15.938;2022-10-26T06:20:42;1.50;;;1.10;;
74465;SDS011;62916;50.044;15.938;2022-10-26T06:23:23;1.90;;;1.10;;
74465;SDS011;62916;50.044;15.938;2022-10-26T06:26:08;1.90;;;1.20;;
74465;SDS011;62916;50.044;15.938;2022-10-26T06:28:51;2.10;;;1.00;;
74465;SDS011;62916;50.044;15.938;2022-10-26T06:31:29;1.80;;;1.20;;
74465;SDS011;62916;50.044;15.938;2022-10-26T06:34:00;2.40;;;1.40;;
74465;SDS011;62916;50.044;15.938;2022-10-26T06:36:32;2.40;;;1.00;;
74465;SDS011;62916;50.044;15.938;2022-10-26T06:39:06;2.00;;;1.20;;
74465;SDS011;62916;50.044;15.938;2022-10-26T06:41:41;1.40;;;1.20;;
74465;SDS011;62916;50.044;15.938;2022-10-26T06:44:14;1.40;;;1.10;;
74465;SDS011;62916;50.044;15.938;2022-10-26T06:46:51;2.10;;;1.10;;
74465;SDS011;62916;50.044;15.938;2022-10-26T06:49:31;1.90;;;1.30;;
74465;SDS011;62916;50.044;15.938;2022-10-26T06:52:09;2.30;;;1.20;;
74465;SDS011;62916;50.044;15.938;2022-10-26T06:54:47;2.20;;;1.40;;
74465;SDS011;62916;50.044;15.938;2022-10-26T06:57:20;1.60;;;1.10;;
74465;SDS011;62916;50.044;15.938;2022-10-26T06:59:53;1.60;;;1.10;;
74465;SDS011;62916;50.044;15.938;2022-10-26T07:02:27;2.60;;;1.10;;
74465;SDS011;62916;50.044;15.938;2022-10-26T07:04:58;1.30;;;1.10;;
74465;SDS011;62916;50.044;15.938;2022-10-26T07:07:29;1.90;;;1.30;;
74465;SDS011;62916;50.044;15.938;2022-10-26T07:10:00;1.70;;;1.30;;
74465;SDS011;62916;50.044;15.938;2022-10-26T07:12:33;2.00;;;1.50;;
74465;SDS011;62916;50.044;15.938;2022-10-26T07:15:05;1.70;;;0.90;;
74465;SDS011;62916;50.044;15.938;2022-10-26T07:17:42;2.40;;;1.60;;
74465;SDS011;62916;50.044;15.938;2022-10-26T07:20:15;1.80;;;1.50;;
74465;SDS011;62916;50.044;15.938;2022-10-26T07:22:51;1.30;;;1.20;;
74465;SDS011;62916;50.044;15.938;2022-10-26T07:25:23;1.70;;;1.40;;
74465;SDS011;62916;50.044;15.938;2022-10-26T07:27:57;2.20;;;1.00;;
74465;SDS011;62916;50.044;15.938;2022-10-26T07:30:29;1.30;;;1.10;;
74465;SDS011;62916;50.044;15.938;2022-10-26T07:33:00;1.40;;;0.90;;
74465;SDS011;62916;50.044;15.938;2022-10-26T07:35:32;1.50;;;0.90;;
74465;SDS011;62916;50.044;15.938;2022-10-26T07:38:04;2.20;;;1.20;;
74465;SDS011;62916;50.044;15.938;2022-10-26T07:40:36;1.70;;;1.40;;
74465;SDS011;62916;50.044;15.938;2022-10-26T07:43:06;1.30;;;1.20;;
74465;SDS011;62916;50.044;15.938;2022-10-26T07:45:37;2.00;;;1.10;;
74465;SDS011;62916;50.044;15.938;2022-10-26T07:48:08;2.90;;;1.30;;
74465;SDS011;62916;50.044;15.938;2022-10-26T07:50:39;0.90;;;0.90;;
74465;SDS011;62916;50.044;15.938;2022-10-26T07:53:10;1.20;;;1.10;;
74465;SDS011;62916;50.044;15.938;2022-10-26T07:55:41;1.80;;;0.80;;
74465;SDS011;62916;50.044;15.938;2022-10-26T07:58:12;2.10;;;1.10;;
74465;SDS011;62916;50.044;15.938;2022-10-26T08:00:43;2.00;;;0.90;;
74465;SDS011;62916;50.044;15.938;2022-10-26T08:03:14;1.10;;;1.00;;
74465;SDS011;62916;50.044;15.938;2022-10-26T08:05:46;1.20;;;1.10;;
74465;SDS011;62916;50.044;15.938;2022-10-26T08:08:18;1.20;;;0.90;;
74465;SDS011;62916;50.044;15.938;2022-10-26T08:10:48;1.40;;;1.10;;
74465;SDS011;62916;50.044;15.938;2022-10-26T08:13:19;1.50;;;1.00;;
74465;SDS011;62916;50.044;15.938;2022-10-26T08:15:54;1.60;;;1.10;;
74465;SDS011;62916;50.044;15.938;2022-10-26T08:18:26;1.30;;;1.10;;
74465;SDS011;62916;50.044;15.938;2022-10-26T08:21:01;1.70;;;1.60;;
74465;SDS011;62916;50.044;15.938;2022-10-26T08:23:38;1.60;;;1.00;;
74465;SDS011;62916;50.044;15.938;2022-10-26T08:26:09;1.00;;;0.90;;
74465;SDS011;62916;50.044;15.938;2022-10-26T08:28:40;0.80;;;0.80;;
74465;SDS011;62916;50.044;15.938;2022-10-26T08:31:11;1.20;;;0.90;;
74465;SDS011;62916;50.044;15.938;2022-10-26T08:33:42;1.20;;;0.90;;
74465;SDS011;62916;50.044;15.938;2022-10-26T08:36:21;1.50;;;1.00;;
74465;SDS011;62916;50.044;15.938;2022-10-26T08:38:54;1.70;;;1.00;;
74465;SDS011;62916;50.044;15.938;2022-10-26T08:41:33;1.00;;;0.90;;
74465;SDS011;62916;50.044;15.938;2022-10-26T08:44:09;1.40;;;1.00;;
74465;SDS011;62916;50.044;15.938;2022-10-26T08:46:52;1.40;;;1.00;;
74465;SDS011;62916;50.044;15.938;2022-10-26T08:49:28;1.20;;;0.80;;
74465;SDS011;62916;50.044;15.938;2022-10-26T08:52:08;2.10;;;1.00;;
74465;SDS011;62916;50.044;15.938;2022-10-26T08:54:43;1.90;;;1.50;;
74465;SDS011;62916;50.044;15.938;2022-10-26T08:57:20;1.00;;;0.90;;
74465;SDS011;62916;50.044;15.938;2022-10-26T08:59:55;1.90;;;1.00;;
74465;SDS011;62916;50.044;15.938;2022-10-26T09:02:29;1.20;;;0.90;;
74465;SDS011;62916;50.044;15.938;2022-10-26T09:05:00;1.10;;;1.00;;
74465;SDS011;62916;50.044;15.938;2022-10-26T09:07:35;1.00;;;0.60;;
74465;SDS011;62916;50.044;15.938;2022-10-26T09:10:18;1.30;;;1.10;;
74465;SDS011;62916;50.044;15.938;2022-10-26T09:12:59;1.00;;;0.90;;
74465;SDS011;62916;50.044;15.938;2022-10-26T09:15:37;1.20;;;1.10;;
74465;SDS011;62916;50.044;15.938;2022-10-26T09:18:18;1.00;;;0.90;;
74465;SDS011;62916;50.044;15.938;2022-10-26T09:21:00;1.30;;;1.10;;
74465;SDS011;62916;50.044;15.938;2022-10-26T09:23:41;1.50;;;0.90;;
74465;SDS011;62916;50.044;15.938;2022-10-26T09:26:32;1.30;;;1.20;;
74465;SDS011;62916;50.044;15.938;2022-10-26T09:29:11;2.00;;;1.00;;
74465;SDS011;62916;50.044;15.938;2022-10-26T09:31:43;1.60;;;0.80;;
74465;SDS011;62916;50.044;15.938;2022-10-26T09:34:21;1.20;;;1.00;;
74465;SDS011;62916;50.044;15.938;2022-10-26T09:36:57;1.30;;;0.90;;
74465;SDS011;62916;50.044;15.938;2022-10-26T09:39:32;1.20;;;0.90;;
74465;SDS011;62916;50.044;15.938;2022-10-26T09:42:13;1.00;;;0.90;;
74465;SDS011;62916;50.044;15.938;2022-10-26T09:44:49;1.70;;;1.00;;
74465;SDS011;62916;50.044;15.938;2022-10-26T09:47:28;1.00;;;0.90;;
74465;SDS011;62916;50.044;15.938;2022-10-26T09:50:05;1.20;;;1.00;;
74465;SDS011;62916;50.044;15.938;2022-10-26T09:52:45;1.60;;;1.00;;
74465;SDS011;62916;50.044;15.938;2022-10-26T09:55:16;1.40;;;0.90;;
74465;SDS011;62916;50.044;15.938;2022-10-26T09:57:50;1.40;;;1.30;;
74465;SDS011;62916;50.044;15.938;2022-10-26T10:00:24;1.20;;;1.10;;
74465;SDS011;62916;50.044;15.938;2022-10-26T10:02:56;1.30;;;0.90;;
74465;SDS011;62916;50.044;15.938;2022-10-26T10:05:29;1.30;;;1.20;;
74465;SDS011;62916;50.044;15.938;2022-10-26T10:08:20;0.90;;;0.80;;
74465;SDS011;62916;50.044;15.938;2022-10-26T10:10:55;1.80;;;0.90;;
74465;SDS011;62916;50.044;15.938;2022-10-26T10:13:29;1.10;;;0.90;;
74465;SDS011;62916;50.044;15.938;2022-10-26T10:16:06;0.80;;;0.80;;
74465;SDS011;62916;50.044;15.938;2022-10-26T10:18:40;1.00;;;0.90;;
74465;SDS011;62916;50.044;15.938;2022-10-26T10:21:20;1.30;;;1.00;;
74465;SDS011;62916;50.044;15.938;2022-10-26T10:24:01;1.40;;;0.90;;
74465;SDS011;62916;50.044;15.938;2022-10-26T10:26:56;1.20;;;1.20;;
74465;SDS011;62916;50.044;15.938;2022-10-26T10:29:29;1.40;;;0.90;;
74465;SDS011;62916;50.044;15.938;2022-10-26T10:32:01;1.50;;;1.00;;
74465;SDS011;62916;50.044;15.938;2022-10-26T10:34:33;1.40;;;1.10;;
74465;SDS011;62916;50.044;15.938;2022-10-26T10:37:04;1.80;;;0.90;;
74465;SDS011;62916;50.044;15.938;2022-10-26T10:39:54;1.40;;;0.90;;
74465;SDS011;62916;50.044;15.938;2022-10-26T10:42:28;1.40;;;0.80;;
74465;SDS011;62916;50.044;15.938;2022-10-26T10:45:01;1.00;;;0.90;;
74465;SDS011;62916;50.044;15.938;2022-10-26T10:47:35;0.70;;;0.70;;
74465;SDS011;62916;50.044;15.938;2022-10-26T10:50:16;1.10;;;1.00;;
74465;SDS011;62916;50.044;15.938;2022-10-26T10:52:48;0.80;;;0.80;;
74465;SDS011;62916;50.044;15.938;2022-10-26T10:55:20;2.40;;;0.90;;
74465;SDS011;62916;50.044;15.938;2022-10-26T10:57:55;1.10;;;0.80;;
74465;SDS011;62916;50.044;15.938;2022-10-26T11:00:36;1.20;;;0.80;;
74465;SDS011;62916;50.044;15.938;2022-10-26T11:03:17;1.00;;;0.80;;
74465;SDS011;62916;50.044;15.938;2022-10-26T11:06:11;0.80;;;0.80;;
74465;SDS011;62916;50.044;15.938;2022-10-26T11:08:47;1.10;;;0.90;;
74465;SDS011;62916;50.044;15.938;2022-10-26T11:11:24;1.00;;;0.50;;
74465;SDS011;62916;50.044;15.938;2022-10-26T11:14:01;1.10;;;0.60;;
74465;SDS011;62916;50.044;15.938;2022-10-26T11:16:35;1.20;;;0.80;;
74465;SDS011;62916;50.044;15.938;2022-10-26T11:19:13;0.70;;;0.70;;
74465;SDS011;62916;50.044;15.938;2022-10-26T11:21:49;1.00;;;0.90;;
74465;SDS011;62916;50.044;15.938;2022-10-26T11:24:23;1.00;;;0.70;;
74465;SDS011;62916;50.044;15.938;2022-10-26T11:27:01;0.80;;;0.80;;
74465;SDS011;62916;50.044;15.938;2022-10-26T11:29:41;1.30;;;0.70;;
74465;SDS011;62916;50.044;15.938;2022-10-26T11:32:18;0.80;;;0.60;;
74465;SDS011;62916;50.044;15.938;2022-10-26T11:34:52;1.00;;;0.70;;
74465;SDS011;62916;50.044;15.938;2022-10-26T11:37:29;1.70;;;1.10;;
74465;SDS011;62916;50.044;15.938;2022-10-26T11:40:08;2.00;;;1.10;;
74465;SDS011;62916;50.044;15.938;2022-10-26T11:42:51;0.90;;;0.80;;
74465;SDS011;62916;50.044;15.938;2022-10-26T11:45:31;0.90;;;0.80;;
74465;SDS011;62916;50.044;15.938;2022-10-26T11:48:10;1.30;;;0.70;;
74465;SDS011;62916;50.044;15.938;2022-10-26T11:50:46;0.70;;;0.60;;
74465;SDS011;62916;50.044;15.938;2022-10-26T11:53:20;0.70;;;0.50;;
74465;SDS011;62916;50.044;15.938;2022-10-26T11:55:55;1.20;;;0.80;;
74465;SDS011;62916;50.044;15.938;2022-10-26T11:58:28;1.30;;;0.90;;
74465;SDS011;62916;50.044;15.938;2022-10-26T12:01:02;0.90;;;0.90;;
74465;SDS011;62916;50.044;15.938;2022-10-26T12:03:38;1.10;;;0.80;;
74465;SDS011;62916;50.044;15.938;2022-10-26T12:06:13;1.30;;;0.80;;
74465;SDS011;62916;50.044;15.938;2022-10-26T12:08:47;1.30;;;1.00;;
74465;SDS011;62916;50.044;15.938;2022-10-26T12:11:30;1.40;;;0.80;;
74465;SDS011;62916;50.044;15.938;2022-10-26T12:14:10;0.80;;;0.70;;
74465;SDS011;62916;50.044;15.938;2022-10-26T12:16:48;0.90;;;0.60;;
74465;SDS011;62916;50.044;15.938;2022-10-26T12:19:26;0.70;;;0.70;;
74465;SDS011;62916;50.044;15.938;2022-10-26T12:22:02;0.90;;;0.70;;
74465;SDS011;62916;50.044;15.938;2022-10-26T12:24:40;1.40;;;0.80;;
74465;SDS011;62916;50.044;15.938;2022-10-26T12:30:27;0.80;;;0.70;;
74465;SDS011;62916;50.044;15.938;2022-10-26T12:35:58;0.90;;;0.70;;
74465;SDS011;62916;50.044;15.938;2022-10-26T12:41:28;1.10;;;0.90;;
74465;SDS011;62916;50.044;15.938;2022-10-26T12:44:03;0.80;;;0.80;;
74465;SDS011;62916;50.044;15.938;2022-10-26T12:47:03;0.80;;;0.80;;
74465;SDS011;62916;50.044;15.938;2022-10-26T12:52:30;0.80;;;0.80;;
74465;SDS011;62916;50.044;15.938;2022-10-26T12:55:22;0.70;;;0.60;;
74465;SDS011;62916;50.044;15.938;2022-10-26T12:58:06;0.70;;;0.60;;
74465;SDS011;62916;50.044;15.938;2022-10-26T13:00:50;1.20;;;1.10;;
74465;SDS011;62916;50.044;15.938;2022-10-26T13:03:39;1.30;;;0.80;;
74465;SDS011;62916;50.044;15.938;2022-10-26T13:06:25;0.80;;;0.80;;
74465;SDS011;62916;50.044;15.938;2022-10-26T13:09:11;0.70;;;0.60;;
74465;SDS011;62916;50.044;15.938;2022-10-26T13:11:47;0.70;;;0.60;;
74465;SDS011;62916;50.044;15.938;2022-10-26T13:14:22;0.90;;;0.70;;
74465;SDS011;62916;50.044;15.938;2022-10-26T13:16:56;0.70;;;0.60;;
74465;SDS011;62916;50.044;15.938;2022-10-26T13:19:31;0.90;;;0.90;;
74465;SDS011;62916;50.044;15.938;2022-10-26T13:22:13;1.60;;;0.90;;
74465;SDS011;62916;50.044;15.938;2022-10-26T13:24:48;1.10;;;1.00;;
74465;SDS011;62916;50.044;15.938;2022-10-26T13:27:23;1.00;;;0.70;;
74465;SDS011;62916;50.044;15.938;2022-10-26T13:36:11;0.70;;;0.50;;
74465;SDS011;62916;50.044;15.938;2022-10-26T13:38:48;1.00;;;0.90;;
74465;SDS011;62916;50.044;15.938;2022-10-26T13:41:21;1.00;;;0.90;;
74465;SDS011;62916;50.044;15.938;2022-10-26T13:44:00;1.10;;;0.80;;
74465;SDS011;62916;50.044;15.938;2022-10-26T13:46:35;1.50;;;1.00;;
74465;SDS011;62916;50.044;15.938;2022-10-26T13:49:12;0.80;;;0.80;;
74465;SDS011;62916;50.044;15.938;2022-10-26T13:51:49;1.70;;;0.80;;
74465;SDS011;62916;50.044;15.938;2022-10-26T13:54:22;0.80;;;0.70;;
74465;SDS011;62916;50.044;15.938;2022-10-26T13:57:00;1.30;;;0.70;;
74465;SDS011;62916;50.044;15.938;2022-10-26T13:59:39;1.10;;;0.80;;
74465;SDS011;62916;50.044;15.938;2022-10-26T14:02:17;0.80;;;0.70;;
74465;SDS011;62916;50.044;15.938;2022-10-26T14:04:58;1.00;;;0.70;;
74465;SDS011;62916;50.044;15.938;2022-10-26T14:07:33;0.90;;;0.80;;
74465;SDS011;62916;50.044;15.938;2022-10-26T14:10:22;0.90;;;0.80;;
74465;SDS011;62916;50.044;15.938;2022-10-26T14:12:55;1.20;;;0.60;;
74465;SDS011;62916;50.044;15.938;2022-10-26T14:15:28;1.10;;;1.00;;
74465;SDS011;62916;50.044;15.938;2022-10-26T14:18:01;1.20;;;0.80;;
74465;SDS011;62916;50.044;15.938;2022-10-26T14:20:33;1.10;;;0.80;;
74465;SDS011;62916;50.044;15.938;2022-10-26T14:23:03;4.60;;;1.30;;
74465;SDS011;62916;50.044;15.938;2022-10-26T14:25:53;3.30;;;1.10;;
74465;SDS011;62916;50.044;15.938;2022-10-26T14:28:26;5.90;;;1.40;;
74465;SDS011;62916;50.044;15.938;2022-10-26T14:31:11;6.30;;;1.80;;
74465;SDS011;62916;50.044;15.938;2022-10-26T14:33:49;4.60;;;1.70;;
74465;SDS011;62916;50.044;15.938;2022-10-26T14:36:21;5.10;;;1.70;;
74465;SDS011;62916;50.044;15.938;2022-10-26T14:38:56;7.60;;;1.90;;
74465;SDS011;62916;50.044;15.938;2022-10-26T14:41:29;5.90;;;1.80;;
74465;SDS011;62916;50.044;15.938;2022-10-26T14:44:02;4.60;;;1.60;;
74465;SDS011;62916;50.044;15.938;2022-10-26T14:46:42;7.50;;;1.90;;
74465;SDS011;62916;50.044;15.938;2022-10-26T14:49:17;7.90;;;1.60;;
74465;SDS011;62916;50.044;15.938;2022-10-26T14:51:50;5.30;;;1.50;;
74465;SDS011;62916;50.044;15.938;2022-10-26T14:54:27;5.80;;;1.90;;
74465;SDS011;62916;50.044;15.938;2022-10-26T14:56:58;3.90;;;1.50;;
74465;SDS011;62916;50.044;15.938;2022-10-26T14:59:35;5.90;;;1.80;;
74465;SDS011;62916;50.044;15.938;2022-10-26T15:02:10;6.30;;;2.30;;
74465;SDS011;62916;50.044;15.938;2022-10-26T15:04:57;4.90;;;1.60;;
74465;SDS011;62916;50.044;15.938;2022-10-26T15:07:36;6.10;;;1.90;;
74465;SDS011;62916;50.044;15.938;2022-10-26T15:13:13;5.90;;;1.90;;
74465;SDS011;62916;50.044;15.938;2022-10-26T15:15:52;8.70;;;2.40;;
74465;SDS011;62916;50.044;15.938;2022-10-26T15:18:25;6.50;;;2.10;;
74465;SDS011;62916;50.044;15.938;2022-10-26T15:20:58;4.90;;;2.20;;
74465;SDS011;62916;50.044;15.938;2022-10-26T15:23:29;6.30;;;2.10;;
74465;SDS011;62916;50.044;15.938;2022-10-26T15:26:00;6.20;;;2.70;;
74465;SDS011;62916;50.044;15.938;2022-10-26T15:28:36;7.70;;;3.00;;
74465;SDS011;62916;50.044;15.938;2022-10-26T15:34:14;7.30;;;2.30;;
74465;SDS011;62916;50.044;15.938;2022-10-26T15:36:51;6.00;;;2.10;;
74465;SDS011;62916;50.044;15.938;2022-10-26T15:39:22;5.70;;;2.40;;
74465;SDS011;62916;50.044;15.938;2022-10-26T15:41:53;3.60;;;1.90;;
74465;SDS011;62916;50.044;15.938;2022-10-26T15:44:24;7.80;;;2.30;;
74465;SDS011;62916;50.044;15.938;2022-10-26T15:46:55;3.50;;;2.10;;
74465;SDS011;62916;50.044;15.938;2022-10-26T15:49:35;4.60;;;1.90;;
74465;SDS011;62916;50.044;15.938;2022-10-26T15:52:07;4.70;;;2.00;;
74465;SDS011;62916;50.044;15.938;2022-10-26T15:54:38;4.20;;;2.00;;